Time;durP1;ratioP1;P1;durP2;ratioP2;P2;SDS_P1;SDS_P2;PMS_P1;PMS_P2;Temp;Humidity;BMP_temperature;BMP_pressure;BME280_temperature;BME280_humidity;BME280_pressure;Samples;Min_cycle;Max_cycle;Signal;HPM_P1;HPM_P2
2022/08/28 00:00:24;;;;;;;7.55;6.65;;;20.00;99.90;;;;;;5084869;28;20687;-68
2022/08/28 00:02:53;;;;;;;11.00;8.23;;;20.00;99.90;;;;;;5078833;28;20131;-74
2022/08/28 00:05:22;;;;;;;7.80;6.90;;;19.90;99.90;;;;;;5086297;28;20485;-69
2022/08/28 00:07:49;;;;;;;10.00;7.70;;;19.80;99.90;;;;;;5078370;28;20036;-70
2022/08/28 00:10:19;;;;;;;8.73;7.93;;;19.70;99.90;;;;;;5083695;28;20071;-69
2022/08/28 00:12:49;;;;;;;8.55;7.18;;;19.70;99.90;;;;;;5084719;28;20045;-68
2022/08/28 00:15:25;;;;;;;8.48;7.47;;;19.60;99.90;;;;;;5085174;28;20068;-69
2022/08/28 00:17:52;;;;;;;9.93;9.02;;;19.70;99.90;;;;;;5079027;28;20521;-73
2022/08/28 00:20:20;;;;;;;9.70;8.70;;;19.70;99.90;;;;;;5078109;28;20160;-71
2022/08/28 00:22:47;;;;;;;8.43;7.68;;;19.70;99.90;;;;;;5085580;28;20048;-72
2022/08/28 00:25:18;;;;;;;9.05;7.15;;;19.70;99.90;;;;;;5091175;27;20155;-69
2022/08/28 00:27:51;;;;;;;7.95;6.68;;;19.60;99.90;;;;;;5085418;28;20444;-69
2022/08/28 00:30:26;;;;;;;10.25;7.53;;;19.60;99.90;;;;;;5082709;28;20079;-70
2022/08/28 00:32:56;;;;;;;8.13;7.30;;;19.50;99.90;;;;;;5085929;28;20044;-69
2022/08/28 00:35:24;;;;;;;7.60;6.85;;;19.40;99.90;;;;;;5082863;28;20100;-72
2022/08/28 00:37:53;;;;;;;7.65;6.95;;;19.30;99.90;;;;;;5080193;28;20109;-68
2022/08/28 00:40:22;;;;;;;9.05;7.35;;;19.30;99.90;;;;;;5081570;28;20144;-69
2022/08/28 00:43:02;;;;;;;8.85;7.55;;;19.30;99.90;;;;;;5083786;28;20111;-69
2022/08/28 00:45:31;;;;;;;9.27;8.25;;;19.20;99.90;;;;;;5085143;28;20570;-73
2022/08/28 00:48:05;;;;;;;9.45;7.57;;;19.10;99.90;;;;;;5053485;28;20089;-70
2022/08/28 00:52:04;;;;;;;8.32;7.30;;;19.00;99.90;;;;;;5085674;28;20052;-71
2022/08/28 00:53:27;;;;;;;9.30;8.13;;;19.00;99.90;;;;;;5076924;28;20525;-69
2022/08/28 00:56:01;;;;;;;8.00;6.82;;;18.90;99.90;;;;;;5082718;28;20044;-69
2022/08/28 00:58:36;;;;;;;9.98;7.50;;;18.90;99.90;;;;;;5081698;28;20044;-72
2022/08/28 01:01:03;;;;;;;8.18;7.38;;;18.80;99.90;;;;;;5084893;28;20093;-70
2022/08/28 01:03:30;;;;;;;9.77;7.90;;;18.80;99.90;;;;;;5081551;28;20454;-69
2022/08/28 01:05:57;;;;;;;11.15;8.00;;;18.80;99.90;;;;;;5083023;28;20101;-70
2022/08/28 01:08:24;;;;;;;11.98;10.55;;;18.80;99.90;;;;;;5082950;28;20086;-69
2022/08/28 01:10:58;;;;;;;12.98;8.65;;;18.80;99.90;;;;;;5084984;28;20036;-69
2022/08/28 01:13:26;;;;;;;8.25;7.43;;;18.70;99.90;;;;;;5080818;27;20133;-69
2022/08/28 01:15:54;;;;;;;12.57;7.90;;;18.70;99.90;;;;;;5084113;28;20105;-71
2022/08/28 01:18:22;;;;;;;11.73;9.38;;;18.70;99.90;;;;;;5081433;28;20220;-71
2022/08/28 01:21:22;;;;;;;12.32;8.55;;;18.60;99.90;;;;;;5084694;28;20136;-70
2022/08/28 01:23:58;;;;;;;10.95;6.97;;;18.60;99.90;;;;;;5080175;28;20085;-74
2022/08/28 01:26:27;;;;;;;9.43;8.52;;;18.50;99.90;;;;;;5077716;28;20807;-70
2022/08/28 01:28:57;;;;;;;10.95;8.73;;;18.50;99.90;;;;;;5084767;28;20109;-69
2022/08/28 01:31:24;;;;;;;11.30;8.40;;;18.50;99.90;;;;;;5083453;28;20054;-70
2022/08/28 01:33:52;;;;;;;11.82;7.78;;;18.40;99.90;;;;;;5083643;28;20072;-69
2022/08/28 01:36:19;;;;;;;8.50;7.70;;;18.40;99.90;;;;;;5082458;28;20085;-76
2022/08/28 01:38:54;;;;;;;11.95;8.32;;;18.30;99.90;;;;;;5083113;28;20392;-69
2022/08/28 01:41:21;;;;;;;8.80;7.88;;;18.30;99.90;;;;;;5082733;28;20069;-69
2022/08/28 01:43:48;;;;;;;12.57;8.68;;;18.20;99.90;;;;;;5083931;28;20491;-69
2022/08/28 01:46:15;;;;;;;9.30;7.43;;;18.20;99.90;;;;;;5082092;28;20227;-68
2022/08/28 01:48:43;;;;;;;9.70;7.78;;;18.20;99.90;;;;;;5082248;28;20047;-68
2022/08/28 01:51:11;;;;;;;11.10;8.25;;;18.10;99.90;;;;;;5083169;28;20044;-69
2022/08/28 01:53:38;;;;;;;12.80;8.50;;;18.10;99.90;;;;;;5083761;28;20043;-70
2022/08/28 01:56:09;;;;;;;10.20;7.30;;;18.10;99.90;;;;;;5082109;28;20175;-70
2022/08/28 01:58:37;;;;;;;8.85;8.05;;;18.10;99.90;;;;;;5078762;28;20143;-70
2022/08/28 02:01:12;;;;;;;8.88;7.93;;;18.00;99.90;;;;;;5081349;28;20416;-71
2022/08/28 02:03:41;;;;;;;11.95;8.85;;;18.00;99.90;;;;;;5084042;28;20066;-68
2022/08/28 02:06:09;;;;;;;11.32;8.52;;;18.00;99.90;;;;;;5081493;28;20370;-71
2022/08/28 02:08:36;;;;;;;11.07;9.02;;;17.90;99.90;;;;;;5080004;28;20500;-70
2022/08/28 02:11:05;;;;;;;9.95;8.80;;;17.80;99.90;;;;;;5083025;28;20159;-74
2022/08/28 02:13:33;;;;;;;9.60;8.68;;;17.80;99.90;;;;;;5083991;28;20560;-69
2022/08/28 02:16:01;;;;;;;10.30;9.15;;;17.80;99.90;;;;;;5081012;28;20036;-74
2022/08/28 02:18:28;;;;;;;11.05;10.05;;;17.80;99.90;;;;;;5079199;28;20097;-73
2022/08/28 02:20:55;;;;;;;9.45;8.65;;;17.70;99.90;;;;;;5065440;28;20148;-69
2022/08/28 02:23:22;;;;;;;10.25;9.32;;;17.70;99.90;;;;;;5081319;28;20486;-69
2022/08/28 02:25:49;;;;;;;9.38;8.50;;;17.70;99.90;;;;;;5082859;28;20096;-72
2022/08/28 02:28:16;;;;;;;8.57;7.75;;;17.60;99.90;;;;;;5062657;28;20052;-70
2022/08/28 02:30:43;;;;;;;10.82;9.73;;;17.60;99.90;;;;;;5079842;28;20040;-69
2022/08/28 02:33:10;;;;;;;10.48;8.55;;;17.60;99.90;;;;;;5077962;28;20050;-72
2022/08/28 02:35:39;;;;;;;10.55;9.45;;;17.60;99.90;;;;;;5082762;28;20080;-70
2022/08/28 02:38:06;;;;;;;9.43;8.50;;;17.50;99.90;;;;;;5081030;28;20351;-71
2022/08/28 02:40:33;;;;;;;12.45;9.32;;;17.50;99.90;;;;;;5064795;28;20085;-70
2022/08/28 02:43:00;;;;;;;10.07;8.23;;;17.50;99.90;;;;;;5082612;28;20102;-69
2022/08/28 02:45:27;;;;;;;10.57;8.88;;;17.40;99.90;;;;;;5082761;28;20410;-68
2022/08/28 02:47:55;;;;;;;10.40;9.32;;;17.40;99.90;;;;;;5082105;28;20068;-70
2022/08/28 02:50:23;;;;;;;9.20;8.30;;;17.40;99.90;;;;;;5081330;28;20089;-75
2022/08/28 02:52:50;;;;;;;11.38;8.15;;;17.30;99.90;;;;;;5083505;28;20037;-70
2022/08/28 02:55:18;;;;;;;10.07;8.73;;;17.30;99.90;;;;;;5083119;28;20081;-68
2022/08/28 02:57:46;;;;;;;9.57;8.68;;;17.30;99.90;;;;;;5082071;28;20051;-68
2022/08/28 03:00:18;;;;;;;15.77;11.50;;;17.30;99.90;;;;;;5080004;28;20178;-71
2022/08/28 03:02:46;;;;;;;13.57;9.95;;;17.20;99.90;;;;;;5074155;28;20048;-71
2022/08/28 03:05:16;;;;;;;10.55;9.55;;;17.20;99.90;;;;;;5082413;28;20044;-71
2022/08/28 03:07:43;;;;;;;10.23;9.32;;;17.20;99.90;;;;;;5081988;28;20068;-69
2022/08/28 03:10:11;;;;;;;10.32;8.90;;;17.20;99.90;;;;;;5076212;28;20140;-73
2022/08/28 03:12:38;;;;;;;12.93;8.73;;;17.20;99.90;;;;;;5081432;28;20048;-70
2022/08/28 03:15:06;;;;;;;9.88;8.98;;;17.20;99.90;;;;;;5078774;28;20097;-71
2022/08/28 03:17:35;;;;;;;10.65;9.60;;;17.20;99.90;;;;;;5082194;28;20768;-70
2022/08/28 03:20:07;;;;;;;10.52;9.32;;;17.10;99.90;;;;;;5081417;28;20082;-70
2022/08/28 03:25:21;;;;;;;10.60;9.60;;;17.10;99.90;;;;;;5078821;28;20117;-71
2022/08/28 03:27:49;;;;;;;10.40;9.32;;;17.10;99.90;;;;;;5082895;28;20040;-74
2022/08/28 03:30:17;;;;;;;10.27;9.23;;;17.00;99.90;;;;;;5066208;28;20105;-69
2022/08/28 03:32:44;;;;;;;11.23;8.93;;;17.00;99.90;;;;;;5087351;28;20425;-69
2022/08/28 03:35:12;;;;;;;13.05;10.50;;;17.00;99.90;;;;;;5087861;28;20056;-74
2022/08/28 03:37:39;;;;;;;10.55;9.45;;;17.00;99.90;;;;;;5086912;28;20052;-69
2022/08/28 03:40:07;;;;;;;9.60;8.63;;;17.00;99.90;;;;;;5081279;28;20082;-70
2022/08/28 03:42:35;;;;;;;10.57;9.48;;;17.00;99.90;;;;;;5086498;28;20040;-70
2022/08/28 03:45:04;;;;;;;10.50;9.32;;;17.00;99.90;;;;;;5087423;28;20538;-71
2022/08/28 03:47:31;;;;;;;9.52;8.73;;;17.00;99.90;;;;;;5086675;28;20534;-71
2022/08/28 03:49:58;;;;;;;9.82;8.93;;;17.00;99.90;;;;;;5085612;28;20072;-69
2022/08/28 03:52:25;;;;;;;10.93;9.95;;;17.00;99.90;;;;;;5082807;28;20470;-68
2022/08/28 03:54:52;;;;;;;11.52;10.43;;;16.90;99.90;;;;;;5078349;28;20076;-68
2022/08/28 03:57:21;;;;;;;10.00;8.88;;;16.90;99.90;;;;;;5085610;28;20044;-71
2022/08/28 03:59:49;;;;;;;12.27;9.73;;;16.90;99.90;;;;;;5087081;28;20136;-71
2022/08/28 04:02:19;;;;;;;11.48;10.32;;;16.90;99.90;;;;;;5084435;28;20048;-69
2022/08/28 04:04:48;;;;;;;12.63;9.47;;;16.90;99.90;;;;;;5081138;28;20036;-70
2022/08/28 04:07:16;;;;;;;11.63;10.48;;;16.90;99.90;;;;;;5084517;28;20173;-69
2022/08/28 04:09:43;;;;;;;11.77;10.00;;;16.90;99.90;;;;;;5084462;28;20079;-69
2022/08/28 04:12:10;;;;;;;17.45;10.40;;;16.90;99.90;;;;;;5083722;28;20087;-70
2022/08/28 04:14:37;;;;;;;11.38;10.27;;;16.90;99.90;;;;;;5084735;28;20039;-68
2022/08/28 04:17:05;;;;;;;14.90;13.10;;;17.00;99.90;;;;;;5085484;28;20127;-69
2022/08/28 04:19:32;;;;;;;13.50;11.65;;;17.00;99.90;;;;;;5088389;27;20059;-70
2022/08/28 04:22:00;;;;;;;9.98;8.98;;;16.90;99.90;;;;;;5083604;28;20151;-69
2022/08/28 04:24:27;;;;;;;11.93;10.18;;;16.90;99.90;;;;;;5083553;28;20043;-70
2022/08/28 04:26:53;;;;;;;15.57;10.70;;;17.00;99.90;;;;;;5085345;28;20075;-69
2022/08/28 04:29:21;;;;;;;14.13;11.20;;;17.00;99.90;;;;;;5085905;28;20135;-71
2022/08/28 04:31:49;;;;;;;11.73;10.60;;;17.00;99.90;;;;;;5085247;28;20109;-69
2022/08/28 04:34:16;;;;;;;15.23;10.18;;;17.00;99.90;;;;;;5080983;28;20065;-70
2022/08/28 04:36:44;;;;;;;20.40;11.98;;;17.10;99.90;;;;;;5084894;28;20097;-69
2022/08/28 04:39:12;;;;;;;11.98;10.82;;;17.20;99.90;;;;;;5085460;28;20373;-70
2022/08/28 04:41:39;;;;;;;12.02;10.60;;;17.20;99.90;;;;;;5085548;28;20505;-69
2022/08/28 04:44:06;;;;;;;9.77;8.85;;;17.30;99.90;;;;;;5080933;28;20052;-72
2022/08/28 04:46:33;;;;;;;10.50;9.60;;;17.30;99.90;;;;;;5085053;28;20071;-69
2022/08/28 04:49:00;;;;;;;10.07;9.07;;;17.40;99.90;;;;;;5087498;28;20075;-69
2022/08/28 04:51:28;;;;;;;9.23;8.38;;;17.40;99.90;;;;;;5084859;28;20040;-71
2022/08/28 04:53:56;;;;;;;11.13;10.00;;;17.50;99.90;;;;;;5083139;28;20052;-69
2022/08/28 04:56:23;;;;;;;11.60;8.80;;;17.50;99.90;;;;;;5081087;28;20425;-75
2022/08/28 04:58:50;;;;;;;9.10;8.18;;;17.60;99.90;;;;;;5085893;28;20443;-69
2022/08/28 05:01:23;;;;;;;10.40;9.40;;;17.60;99.90;;;;;;5084221;28;20123;-69
2022/08/28 05:03:54;;;;;;;9.57;8.48;;;17.70;99.90;;;;;;5085252;28;20071;-69
2022/08/28 05:06:25;;;;;;;8.95;8.05;;;17.80;99.90;;;;;;5079242;28;20336;-73
2022/08/28 05:08:56;;;;;;;8.95;7.72;;;17.80;99.90;;;;;;5084823;28;20450;-69
2022/08/28 05:11:24;;;;;;;10.95;9.65;;;17.80;99.90;;;;;;5085344;28;20047;-69
2022/08/28 05:14:03;;;;;;;13.18;9.30;;;17.90;99.90;;;;;;5082832;28;20520;-75
2022/08/28 05:16:30;;;;;;;9.35;8.43;;;17.90;99.90;;;;;;5084780;28;20069;-73
2022/08/28 05:19:01;;;;;;;11.35;8.77;;;18.00;99.90;;;;;;5083821;28;20421;-71
2022/08/28 05:21:28;;;;;;;10.52;9.20;;;18.10;99.90;;;;;;5083209;28;20055;-69
2022/08/28 05:23:56;;;;;;;11.55;8.88;;;18.10;99.90;;;;;;5085226;28;20105;-76
2022/08/28 05:26:24;;;;;;;11.88;9.75;;;18.20;99.90;;;;;;5081859;28;20044;-70
2022/08/28 05:28:55;;;;;;;9.07;8.02;;;18.30;99.90;;;;;;5083881;28;20043;-70
2022/08/28 05:31:23;;;;;;;9.23;8.35;;;18.50;99.90;;;;;;5080388;28;20526;-70
2022/08/28 05:33:51;;;;;;;9.98;9.07;;;18.60;99.90;;;;;;5085418;28;20112;-70
2022/08/28 05:36:21;;;;;;;10.57;9.57;;;18.70;99.90;;;;;;5081777;28;21328;-70
2022/08/28 05:38:50;;;;;;;10.13;8.77;;;18.80;99.90;;;;;;5085013;28;20058;-70
2022/08/28 05:41:26;;;;;;;8.43;7.70;;;18.90;99.90;;;;;;5084200;28;20047;-74
2022/08/28 05:43:53;;;;;;;12.13;8.85;;;19.00;99.90;;;;;;5084932;28;20039;-74
2022/08/28 05:46:21;;;;;;;11.35;9.55;;;19.00;99.90;;;;;;5081481;28;20119;-72
2022/08/28 05:48:49;;;;;;;8.85;8.10;;;19.20;99.90;;;;;;5062460;28;20071;-69
2022/08/28 05:51:19;;;;;;;11.40;10.38;;;19.20;99.90;;;;;;5084053;28;20125;-69
2022/08/28 05:53:48;;;;;;;8.05;7.35;;;19.30;99.90;;;;;;5073624;28;20036;-70
2022/08/28 05:56:23;;;;;;;10.23;7.82;;;19.40;99.90;;;;;;5076154;28;20136;-70
2022/08/28 05:58:50;;;;;;;8.02;7.30;;;19.50;99.90;;;;;;5080518;28;20082;-69
2022/08/28 06:01:20;;;;;;;8.30;7.57;;;19.60;99.90;;;;;;5082181;28;20060;-73
2022/08/28 06:03:56;;;;;;;8.10;7.28;;;19.70;99.90;;;;;;5083935;28;20069;-70
2022/08/28 06:06:26;;;;;;;9.88;8.88;;;19.80;99.90;;;;;;5082795;28;20070;-69
2022/08/28 06:08:58;;;;;;;11.60;7.03;;;19.90;99.90;;;;;;5083706;28;20067;-68
2022/08/28 06:11:27;;;;;;;7.63;6.38;;;20.00;99.90;;;;;;5083681;28;20051;-69
2022/08/28 06:14:00;;;;;;;8.98;8.02;;;20.10;99.90;;;;;;5075890;28;20071;-73
2022/08/28 06:16:30;;;;;;;16.38;9.00;;;20.10;99.90;;;;;;5082636;28;20051;-72
2022/08/28 06:18:59;;;;;;;9.95;6.95;;;20.20;99.90;;;;;;5082786;28;20065;-69
2022/08/28 06:21:26;;;;;;;10.75;7.40;;;20.30;99.90;;;;;;5083485;28;20218;-68
2022/08/28 06:23:53;;;;;;;8.77;6.70;;;20.30;99.90;;;;;;5079463;28;20067;-69
2022/08/28 06:26:20;;;;;;;8.00;6.93;;;20.40;99.90;;;;;;5082612;28;20067;-72
2022/08/28 06:28:47;;;;;;;10.85;7.80;;;20.40;99.90;;;;;;5083642;28;20060;-71
2022/08/28 06:31:14;;;;;;;8.40;7.05;;;20.50;99.90;;;;;;5083329;28;20747;-70
2022/08/28 06:33:56;;;;;;;13.05;6.82;;;20.70;99.90;;;;;;5082640;28;20564;-76
2022/08/28 06:36:27;;;;;;;8.32;5.82;;;20.80;99.90;;;;;;5081580;28;20114;-70
2022/08/28 06:38:59;;;;;;;10.45;6.38;;;20.80;99.90;;;;;;5074016;28;20041;-71
2022/08/28 06:41:28;;;;;;;9.45;6.28;;;20.80;99.90;;;;;;5083569;28;20112;-70
2022/08/28 06:43:56;;;;;;;11.53;9.57;;;20.90;99.90;;;;;;5084456;28;20635;-70
2022/08/28 06:46:23;;;;;;;12.20;7.22;;;21.00;99.90;;;;;;5080350;28;20511;-69
2022/08/28 06:48:51;;;;;;;6.38;5.88;;;21.10;99.90;;;;;;5078077;28;20039;-69
2022/08/28 06:51:18;;;;;;;7.40;6.43;;;21.20;99.90;;;;;;5083802;28;20120;-69
2022/08/28 06:53:48;;;;;;;7.35;6.65;;;21.30;99.90;;;;;;5084299;28;20453;-71
2022/08/28 06:56:18;;;;;;;8.93;7.40;;;21.40;99.90;;;;;;5081553;28;20072;-70
2022/08/28 06:58:54;;;;;;;7.78;6.95;;;21.50;99.90;;;;;;5078744;28;20046;-74
2022/08/28 07:01:27;;;;;;;7.15;6.50;;;21.60;99.90;;;;;;5083264;28;20431;-70
2022/08/28 07:03:59;;;;;;;7.05;6.30;;;21.70;99.90;;;;;;5084971;28;20048;-69
2022/08/28 07:06:29;;;;;;;7.68;6.97;;;21.80;99.90;;;;;;5069153;28;20697;-77
2022/08/28 07:08:56;;;;;;;7.07;6.40;;;21.90;99.90;;;;;;5072272;28;20050;-71
2022/08/28 07:11:30;;;;;;;10.07;7.38;;;22.00;99.90;;;;;;5063613;28;20053;-70
2022/08/28 07:13:57;;;;;;;9.30;7.15;;;22.00;99.90;;;;;;5066721;28;20067;-72
2022/08/28 07:16:28;;;;;;;7.65;6.95;;;22.10;99.90;;;;;;5065409;28;20069;-71
2022/08/28 07:18:56;;;;;;;6.05;5.55;;;22.10;99.90;;;;;;5065860;28;20090;-69
2022/08/28 07:21:23;;;;;;;9.43;6.75;;;22.20;99.90;;;;;;5063590;28;20107;-71
2022/08/28 07:23:50;;;;;;;10.70;6.57;;;22.30;99.90;;;;;;5066905;28;20512;-70
2022/08/28 07:26:22;;;;;;;14.20;7.22;;;22.50;99.90;;;;;;5065845;28;20075;-69
2022/08/28 07:28:50;;;;;;;13.10;6.60;;;22.60;99.90;;;;;;5065252;28;20569;-75
2022/08/28 07:31:21;;;;;;;9.50;6.38;;;22.60;99.90;;;;;;5066977;28;20132;-69
2022/08/28 07:33:49;;;;;;;7.13;5.95;;;22.80;99.90;;;;;;5060255;28;20379;-76
2022/08/28 07:36:23;;;;;;;5.97;5.30;;;23.00;99.90;;;;;;5064866;28;20052;-69
2022/08/28 07:38:57;;;;;;;8.23;6.00;;;23.10;99.90;;;;;;5066490;28;20090;-74
2022/08/28 07:41:27;;;;;;;9.88;8.18;;;23.20;99.90;;;;;;5066551;28;20368;-71
2022/08/28 07:46:40;;;;;;;6.63;6.03;;;23.50;99.90;;;;;;5059505;28;20091;-72
2022/08/28 07:49:08;;;;;;;6.30;5.80;;;23.50;99.90;;;;;;5058426;28;20139;-72
2022/08/28 07:51:35;;;;;;;6.63;5.85;;;23.60;99.90;;;;;;5065489;28;20128;-72
2022/08/28 07:54:02;;;;;;;7.47;5.63;;;23.80;99.90;;;;;;5061520;28;20573;-72
2022/08/28 07:56:30;;;;;;;8.02;6.20;;;23.80;99.90;;;;;;5066707;28;20044;-70
2022/08/28 07:58:59;;;;;;;10.35;6.35;;;24.00;99.90;;;;;;5066302;28;20078;-73
2022/08/28 08:01:28;;;;;;;7.10;5.45;;;24.10;99.90;;;;;;5056819;28;20114;-70
2022/08/28 08:03:57;;;;;;;;;;;24.20;99.90;;;;;;5056503;28;20048;-72
2022/08/28 08:06:30;;;;;;;8.90;5.65;;;24.40;99.90;;;;;;5062230;28;19923;-70
2022/08/28 08:09:00;;;;;;;6.38;5.25;;;24.60;99.90;;;;;;5064233;28;20123;-69
2022/08/28 08:11:28;;;;;;;7.72;7.03;;;24.70;99.90;;;;;;5066623;28;20055;-70
2022/08/28 08:14:02;;;;;;;7.07;6.38;;;24.80;99.90;;;;;;5066142;28;20330;-69
2022/08/28 08:16:34;;;;;;;5.80;5.10;;;25.00;99.90;;;;;;5058232;28;20111;-73
2022/08/28 08:19:02;;;;;;;;;;;25.10;99.90;;;;;;5062113;28;20045;-72
2022/08/28 08:21:30;;;;;;;7.00;6.30;;;25.30;99.90;;;;;;5066783;28;19920;-69
2022/08/28 08:23:58;;;;;;;7.97;5.90;;;25.30;99.90;;;;;;5065728;28;20045;-72
2022/08/28 08:26:29;;;;;;;6.47;5.35;;;25.40;99.90;;;;;;5064908;28;20048;-69
2022/08/28 08:28:56;;;;;;;8.05;5.75;;;25.40;99.90;;;;;;5066163;28;20076;-70
2022/08/28 08:31:25;;;;;;;8.95;5.68;;;25.40;99.90;;;;;;5065786;28;20109;-69
2022/08/28 08:33:56;;;;;;;11.03;6.57;;;25.60;99.90;;;;;;5082829;28;20046;-70
2022/08/28 08:36:25;;;;;;;6.95;5.43;;;25.70;99.90;;;;;;5079831;28;20479;-69
2022/08/28 08:38:53;;;;;;;7.05;5.65;;;25.70;99.90;;;;;;5061353;28;20147;-71
2022/08/28 08:41:38;;;;;;;8.20;7.03;;;25.80;99.90;;;;;;5065384;28;20694;-69
2022/08/28 08:44:24;;;;;;;6.78;6.03;;;26.00;99.90;;;;;;5063962;28;20099;-70
2022/08/28 08:47:14;;;;;;;6.10;5.50;;;26.10;99.90;;;;;;5063556;28;20151;-70
2022/08/28 08:50:00;;;;;;;7.38;6.50;;;26.20;99.90;;;;;;5060918;28;20064;-70
2022/08/28 08:52:30;;;;;;;11.07;6.40;;;26.30;99.90;;;;;;5081152;28;20040;-69
2022/08/28 08:55:14;;;;;;;7.35;6.50;;;26.40;99.90;;;;;;5066182;28;20074;-69
2022/08/28 08:57:42;;;;;;;6.15;4.78;;;26.40;99.90;;;;;;5078581;28;20097;-69
2022/08/28 09:00:16;;;;;;;9.43;6.15;;;26.60;99.90;;;;;;5082041;28;20169;-70
2022/08/28 09:02:54;;;;;;;8.35;6.50;;;26.70;99.90;;;;;;5081903;28;20055;-69
2022/08/28 09:05:36;;;;;;;5.70;5.20;;;26.80;99.90;;;;;;5077292;28;20040;-70
2022/08/28 09:08:05;;;;;;;5.80;4.90;;;26.90;99.90;;;;;;5082862;28;20075;-73
2022/08/28 09:10:41;;;;;;;6.80;6.10;;;26.90;99.90;;;;;;5084759;28;20840;-70
2022/08/28 09:13:19;;;;;;;10.45;7.05;;;27.00;99.90;;;;;;5085464;28;20040;-69
2022/08/28 09:15:46;;;;;;;6.35;5.85;;;27.00;99.90;;;;;;5083281;28;20135;-77
2022/08/28 09:18:34;;;;;;;8.45;5.22;;;27.10;99.90;;;;;;5082910;28;20551;-71
2022/08/28 09:21:04;;;;;;;7.65;5.97;;;27.10;99.90;;;;;;5083955;28;20063;-74
2022/08/28 09:23:31;;;;;;;7.43;5.55;;;27.10;99.90;;;;;;5067053;28;20083;-69
2022/08/28 09:26:04;;;;;;;8.38;5.47;;;26.50;99.90;;;;;;5082315;28;20444;-69
2022/08/28 09:28:36;;;;;;;6.45;5.18;;;25.80;99.90;;;;;;5085293;28;20036;-70
2022/08/28 09:31:07;;;;;;;9.80;6.45;;;25.40;99.90;;;;;;5084554;28;20048;-72
2022/08/28 09:33:47;;;;;;;12.90;7.72;;;25.00;99.90;;;;;;5077411;28;20052;-71
2022/08/28 09:36:36;;;;;;;7.88;7.18;;;24.60;99.90;;;;;;5081789;28;20161;-69
2022/08/28 09:39:17;;;;;;;14.07;8.23;;;24.30;99.90;;;;;;5084209;28;20387;-70
2022/08/28 09:45:12;;;;;;;8.45;7.65;;;23.90;99.90;;;;;;5083866;28;20032;-70
2022/08/28 09:47:48;;;;;;;9.80;6.88;;;23.90;99.90;;;;;;5083170;28;20044;-70
2022/08/28 09:50:27;;;;;;;9.15;7.70;;;23.80;99.90;;;;;;5082296;28;20147;-68
2022/08/28 09:53:16;;;;;;;11.38;6.35;;;23.70;99.90;;;;;;5082187;28;20040;-71
2022/08/28 09:55:52;;;;;;;18.80;7.20;;;23.70;99.90;;;;;;5082369;28;20054;-76
2022/08/28 09:58:21;;;;;;;6.57;5.97;;;23.70;99.90;;;;;;5082526;28;20391;-68
2022/08/28 10:01:02;;;;;;;8.00;7.30;;;23.60;99.90;;;;;;5076845;28;20090;-69
2022/08/28 10:03:35;;;;;;;13.32;7.70;;;23.50;99.90;;;;;;5084154;28;20082;-70
2022/08/28 10:06:28;;;;;;;11.65;7.45;;;23.50;99.90;;;;;;5078581;28;20075;-70
2022/08/28 10:09:22;;;;;;;12.38;9.68;;;23.60;99.90;;;;;;5082902;28;20097;-74
2022/08/28 10:12:10;;;;;;;10.05;8.23;;;23.30;99.90;;;;;;5082005;28;20458;-73
2022/08/28 10:14:44;;;;;;;12.93;10.20;;;23.40;99.90;;;;;;5073763;28;20062;-70
2022/08/28 10:17:55;;;;;;;11.20;10.13;;;23.30;99.90;;;;;;5083211;28;20095;-70
2022/08/28 10:20:54;;;;;;;15.38;9.45;;;23.20;99.90;;;;;;5073535;28;20056;-71
2022/08/28 10:23:31;;;;;;;16.40;10.20;;;23.20;99.90;;;;;;5077277;28;20075;-68
2022/08/28 10:26:29;;;;;;;11.23;8.98;;;23.20;99.90;;;;;;5079341;28;20492;-70
2022/08/28 10:29:47;;;;;;;12.65;10.80;;;23.20;99.90;;;;;;5083749;28;20126;-69
2022/08/28 10:32:51;;;;;;;16.65;11.25;;;23.20;99.90;;;;;;5018908;28;20137;-69
2022/08/28 10:35:34;;;;;;;14.73;10.73;;;23.10;99.90;;;;;;5020191;28;20072;-68
2022/08/28 10:38:04;;;;;;;10.93;9.93;;;23.20;99.90;;;;;;5073328;28;20448;-74
2022/08/28 10:40:46;;;;;;;12.13;10.73;;;23.30;99.90;;;;;;5091147;28;20059;-70
2022/08/28 10:43:18;;;;;;;10.95;9.95;;;23.40;99.90;;;;;;5090554;28;20484;-69
2022/08/28 10:45:48;;;;;;;12.38;9.05;;;23.50;99.90;;;;;;5090803;28;20052;-68
2022/08/28 10:48:16;;;;;;;13.35;9.48;;;23.50;99.90;;;;;;5088936;28;20047;-74
2022/08/28 10:50:56;;;;;;;10.70;9.45;;;23.50;99.90;;;;;;5090778;28;20434;-69
2022/08/28 10:53:38;;;;;;;12.48;9.18;;;23.70;99.90;;;;;;5090527;27;20124;-68
2022/08/28 10:56:16;;;;;;;10.85;9.30;;;23.70;99.90;;;;;;5083601;27;20059;-72
2022/08/28 10:58:46;;;;;;;10.93;8.88;;;23.80;99.90;;;;;;5072567;28;21503;-69
2022/08/28 11:01:34;;;;;;;9.93;8.93;;;23.90;99.90;;;;;;5089836;28;20044;-69
2022/08/28 11:04:08;;;;;;;15.20;10.13;;;24.00;99.90;;;;;;5080070;28;20090;-75
2022/08/28 11:06:49;;;;;;;12.75;11.32;;;24.00;99.90;;;;;;5089745;28;20128;-71
2022/08/28 11:09:33;;;;;;;13.98;10.32;;;23.90;99.90;;;;;;5090227;28;20109;-70
2022/08/28 11:12:09;;;;;;;12.32;11.07;;;24.00;99.90;;;;;;5067271;28;20585;-69
2022/08/28 11:14:37;;;;;;;10.80;9.68;;;23.90;99.90;;;;;;5069309;28;20064;-69
2022/08/28 11:17:26;;;;;;;11.38;9.20;;;24.00;99.90;;;;;;5089335;28;20036;-68
2022/08/28 11:20:16;;;;;;;9.07;8.13;;;24.20;99.90;;;;;;5087582;28;20037;-73
2022/08/28 11:22:51;;;;;;;10.43;9.52;;;24.30;99.90;;;;;;5088598;28;20117;-70
2022/08/28 11:25:24;;;;;;;10.65;9.32;;;24.50;99.90;;;;;;5095188;27;20040;-69
2022/08/28 11:28:18;;;;;;;13.10;8.32;;;24.80;99.90;;;;;;5083591;28;20170;-72
2022/08/28 11:30:48;;;;;;;8.70;7.80;;;24.70;99.90;;;;;;5057177;28;20052;-70
2022/08/28 11:33:37;;;;;;;11.13;8.82;;;24.80;99.90;;;;;;5069301;28;20063;-69
2022/08/28 11:36:10;;;;;;;8.52;7.68;;;25.00;99.90;;;;;;5066131;28;20053;-74
2022/08/28 11:38:40;;;;;;;11.05;7.78;;;25.10;99.90;;;;;;5070878;28;20043;-70
2022/08/28 11:41:13;;;;;;;;;;;25.20;99.90;;;;;;5069964;28;20048;-72
2022/08/28 11:43:45;;;;;;;13.73;9.98;;;24.80;99.90;;;;;;5062537;28;19997;-68
2022/08/28 11:46:15;;;;;;;9.77;8.05;;;24.60;99.90;;;;;;5064731;28;20048;-71
2022/08/28 11:48:50;;;;;;;9.20;8.27;;;24.70;99.90;;;;;;5068028;28;20548;-70
2022/08/28 11:51:17;;;;;;;11.77;7.75;;;24.80;99.90;;;;;;5065421;28;20465;-75
2022/08/28 11:53:50;;;;;;;7.95;7.15;;;25.00;99.90;;;;;;5066407;28;20051;-71
2022/08/28 11:56:36;;;;;;;9.35;8.43;;;25.20;99.90;;;;;;5061880;28;20083;-69
2022/08/28 11:59:34;;;;;;;11.88;8.65;;;25.30;99.90;;;;;;5066512;28;20067;-74
2022/08/28 12:02:38;;;;;;;11.45;8.50;;;25.20;99.90;;;;;;5063493;28;20453;-69
2022/08/28 12:05:10;;;;;;;12.43;9.25;;;25.30;99.90;;;;;;5064730;28;20048;-69
2022/08/28 12:07:42;;;;;;;13.73;10.00;;;25.20;99.90;;;;;;5065686;28;20114;-70
2022/08/28 12:10:21;;;;;;;9.48;8.25;;;25.40;99.90;;;;;;5069762;28;20044;-71
2022/08/28 12:12:48;;;;;;;12.45;8.13;;;25.60;99.90;;;;;;5058262;28;20036;-68
2022/08/28 12:15:28;;;;;;;11.15;8.90;;;25.60;99.90;;;;;;5064298;28;20076;-69
2022/08/28 12:18:04;;;;;;;14.75;9.15;;;25.50;99.90;;;;;;5066587;28;20044;-74
2022/08/28 12:20:43;;;;;;;11.27;8.82;;;25.60;99.90;;;;;;5062700;28;20562;-71
2022/08/28 12:23:28;;;;;;;10.15;9.00;;;25.60;99.90;;;;;;5065643;28;20056;-70
2022/08/28 12:26:12;;;;;;;10.18;9.15;;;25.40;99.90;;;;;;5064152;28;20055;-68
2022/08/28 12:28:51;;;;;;;15.05;9.10;;;25.50;99.90;;;;;;5075868;28;20105;-68
2022/08/28 12:34:49;;;;;;;9.77;7.45;;;25.80;99.90;;;;;;5062030;28;20090;-77
2022/08/28 12:37:34;;;;;;;8.90;8.00;;;26.00;99.90;;;;;;5060955;28;20063;-68
2022/08/28 12:40:28;;;;;;;15.32;8.63;;;25.80;99.90;;;;;;5060881;28;20177;-69
2022/08/28 12:43:08;;;;;;;17.95;8.02;;;25.80;99.90;;;;;;5070813;28;20125;-71
2022/08/28 12:45:43;;;;;;;9.38;7.55;;;25.80;99.90;;;;;;5084539;28;20040;-70
2022/08/28 12:48:13;;;;;;;10.57;8.15;;;25.70;99.90;;;;;;5082490;28;20127;-71
2022/08/28 12:50:40;;;;;;;8.77;7.90;;;25.60;99.90;;;;;;5085589;28;20089;-70
2022/08/28 12:53:15;;;;;;;15.02;8.55;;;25.50;99.90;;;;;;5084215;28;20040;-69
2022/08/28 12:55:44;;;;;;;9.07;6.85;;;25.60;99.90;;;;;;5085224;28;20040;-68
2022/08/28 12:58:36;;;;;;;9.88;7.90;;;25.70;99.90;;;;;;5082689;28;20154;-68
2022/08/28 13:01:14;;;;;;;16.23;8.23;;;25.60;99.90;;;;;;5071307;28;20128;-68
2022/08/28 13:03:51;;;;;;;9.52;7.03;;;25.50;99.90;;;;;;5085001;28;20109;-69
2022/08/28 13:06:25;;;;;;;9.70;8.40;;;25.50;99.90;;;;;;5082485;28;20101;-69
2022/08/28 13:09:02;;;;;;;15.35;9.23;;;25.50;99.90;;;;;;5092024;28;20074;-68
2022/08/28 13:11:35;;;;;;;12.48;10.10;;;25.20;99.90;;;;;;5072880;28;20072;-70
2022/08/28 13:14:04;;;;;;;17.60;8.65;;;25.00;99.90;;;;;;5082803;28;20036;-74
2022/08/28 13:16:45;;;;;;;11.07;9.30;;;24.80;99.90;;;;;;5065144;28;20070;-73
2022/08/28 13:19:33;;;;;;;10.90;9.75;;;24.70;99.90;;;;;;5084336;28;20040;-71